TAF KRSL
KRSL 280520Z 2806/2906 34007KT P6SM SCT250 FM280900 VRB05KT P6SM SKC FM282000 22012KT P6SM SKC=
METAR KRSL
WC KRSL
WS KRSL
WV KRSL